KSSC/SSC METAR and TAF weather

Enter ICAO airport designator
Station Type Date Time Source
KSSC METAR 2019/04/25 16:56 UTC NOAA

KSSC 251656Z 20011KT 10SM SCT160 BKN250 27/15 A2992 RMK AO2A SLP132 T02740147 $


Station Type Date Time Source
KSSC Decoded METAR 2019/04/25 16:56 UTC NOAA

Shaw Air Force Base, SC, United States (KSSC) 33-58N 080-29W 73M
Apr 25, 2019 - 12:56 PM EDT / 2019.04.25 1656 UTC
Wind: from the SSW (200 degrees) at 13 MPH (11 KT):0
Visibility: 10 mile(s):0
Sky conditions: mostly cloudy
Temperature: 81.3 F (27.4 C)
Dew Point: 58.5 F (14.7 C)
Relative Humidity: 45%
Pressure (altimeter): 29.92 in. Hg (1013 hPa)
ob: KSSC 251656Z 20011KT 10SM SCT160 BKN250 27/15 A2992 RMK AO2A SLP132 T02740147
cycle: 17

Station Type Date Time Source
KSSC TAF 2019/04/25 23:27 UTC NOAA

TAF KSSC 242300Z 2423/2605 23009KT 9999 FEW150 QNH2986INS
BECMG 2518/2519 23012G18KT 9999 SCT100 BKN150 QNH2984INS
BECMG 2522/2523 22009KT 9999 BKN100 QNH2985INS TX32/2520Z TN15/2511Z

Example: see airport list